createdAt,value
2018-08-19T00:00:03.953Z,0.00
2018-08-19T00:01:03.954Z,0.00
2018-08-19T00:02:03.935Z,0.00
2018-08-19T00:03:03.915Z,0.00
2018-08-19T00:04:03.943Z,0.00
2018-08-19T00:05:03.908Z,0.00
2018-08-19T00:06:03.892Z,0.00
2018-08-19T00:07:03.912Z,0.00
2018-08-19T00:08:03.871Z,0.00
2018-08-19T00:09:03.915Z,0.00
2018-08-19T00:10:03.863Z,0.00
2018-08-19T00:11:03.849Z,0.00
2018-08-19T00:12:03.829Z,0.00
2018-08-19T00:13:03.881Z,0.00
2018-08-19T00:14:03.817Z,0.00
2018-08-19T00:15:03.816Z,0.00
2018-08-19T00:16:03.794Z,0.00
2018-08-19T00:17:03.791Z,0.00
2018-08-19T00:18:03.775Z,0.00
2018-08-19T00:19:03.799Z,0.00
2018-08-19T00:20:03.762Z,0.00
2018-08-19T00:21:03.750Z,0.00
2018-08-19T00:22:03.751Z,0.00
2018-08-19T00:23:03.736Z,0.00
2018-08-19T00:24:03.751Z,0.00
2018-08-19T00:25:03.720Z,0.00
2018-08-19T00:26:03.695Z,0.00
2018-08-19T00:27:03.690Z,0.00
2018-08-19T00:28:03.683Z,0.00
2018-08-19T00:29:03.705Z,0.00
2018-08-19T00:30:03.664Z,0.00
2018-08-19T00:31:03.661Z,0.00
2018-08-19T00:32:03.634Z,0.00
2018-08-19T00:33:03.644Z,0.00
2018-08-19T00:34:03.646Z,0.00
2018-08-19T00:35:03.623Z,0.00
2018-08-19T00:36:03.659Z,0.00
2018-08-19T00:37:03.598Z,0.00
2018-08-19T00:38:03.589Z,0.00
2018-08-19T00:39:03.586Z,0.00
2018-08-19T00:40:03.571Z,0.00
2018-08-19T00:41:03.597Z,0.00
2018-08-19T00:42:03.589Z,0.00
2018-08-19T00:43:03.543Z,0.00
2018-08-19T00:44:03.534Z,0.00
2018-08-19T00:45:03.522Z,0.00
2018-08-19T00:46:03.532Z,0.00
2018-08-19T00:47:03.504Z,0.00
2018-08-19T00:48:03.509Z,0.00
2018-08-19T00:49:03.481Z,0.00
2018-08-19T00:50:03.476Z,0.00
2018-08-19T00:51:03.487Z,0.00
2018-08-19T00:52:03.446Z,0.00
2018-08-19T00:53:03.448Z,0.00
2018-08-19T00:54:03.458Z,0.00
2018-08-19T00:55:03.425Z,0.00
2018-08-19T00:56:03.449Z,0.00
2018-08-19T00:57:03.409Z,0.00
2018-08-19T00:58:03.385Z,0.00
2018-08-19T00:59:03.386Z,0.00
2018-08-19T01:00:03.380Z,0.00
2018-08-19T01:01:03.391Z,0.00
2018-08-19T01:02:03.363Z,0.00
2018-08-19T01:03:03.354Z,0.00
2018-08-19T01:04:03.343Z,0.00
2018-08-19T01:05:03.326Z,0.00
2018-08-19T01:06:03.353Z,0.00
2018-08-19T01:07:03.304Z,0.00
2018-08-19T01:08:03.298Z,0.00
2018-08-19T01:09:03.291Z,0.00
2018-08-19T01:10:03.284Z,0.00
2018-08-19T01:11:03.265Z,0.00
2018-08-19T01:12:03.253Z,0.00
2018-08-19T01:13:03.240Z,0.00
2018-08-19T01:14:03.303Z,0.00
2018-08-19T01:15:03.236Z,0.00
2018-08-19T01:16:03.209Z,0.00
2018-08-19T01:17:03.214Z,0.00
2018-08-19T01:18:03.202Z,0.00
2018-08-19T01:19:03.191Z,0.00
2018-08-19T01:20:03.176Z,0.00
2018-08-19T01:21:03.195Z,0.00
2018-08-19T01:22:03.160Z,0.00
2018-08-19T01:23:03.144Z,0.00
2018-08-19T01:24:03.142Z,0.00
2018-08-19T01:25:03.134Z,0.00
2018-08-19T01:26:03.148Z,0.00
2018-08-19T01:27:03.113Z,0.00
2018-08-19T01:28:03.106Z,0.00
2018-08-19T01:29:03.080Z,0.00
2018-08-19T01:30:03.071Z,0.00
2018-08-19T01:31:03.065Z,0.00
2018-08-19T01:32:03.048Z,0.00
2018-08-19T01:33:03.040Z,0.00
2018-08-19T01:34:03.029Z,0.00
2018-08-19T01:35:03.040Z,0.00
2018-08-19T01:36:03.014Z,0.00
2018-08-19T01:37:03.042Z,0.00
2018-08-19T01:38:03.000Z,0.00
2018-08-19T01:39:02.984Z,0.00
2018-08-19T01:40:02.980Z,0.00
2018-08-19T01:41:02.968Z,0.00
2018-08-19T01:42:02.982Z,0.00
2018-08-19T01:43:02.970Z,0.00
2018-08-19T01:44:02.938Z,0.00
2018-08-19T01:45:02.929Z,0.00
2018-08-19T01:46:02.918Z,0.00
2018-08-19T01:47:02.966Z,0.00
2018-08-19T01:48:02.892Z,0.00
2018-08-19T01:49:02.883Z,0.00
2018-08-19T01:50:02.883Z,0.00
2018-08-19T01:51:02.865Z,0.00
2018-08-19T01:52:02.872Z,0.00
2018-08-19T01:53:02.852Z,0.00
2018-08-19T01:54:02.831Z,0.00
2018-08-19T01:55:02.815Z,0.00
2018-08-19T01:56:02.822Z,0.00
2018-08-19T01:57:02.803Z,0.00
2018-08-19T01:58:02.828Z,0.00
2018-08-19T01:59:02.785Z,0.00
2018-08-19T02:00:02.768Z,0.00
2018-08-19T02:01:02.756Z,0.00
2018-08-19T02:02:02.752Z,0.00
2018-08-19T02:03:02.763Z,0.00
2018-08-19T02:04:02.736Z,0.00
2018-08-19T02:05:02.738Z,0.00
2018-08-19T02:06:02.710Z,0.00
2018-08-19T02:07:02.700Z,0.00
2018-08-19T02:08:02.721Z,0.00
2018-08-19T02:09:02.676Z,0.00
2018-08-19T02:10:02.705Z,0.00
2018-08-19T02:11:02.691Z,0.00
2018-08-19T02:12:02.643Z,0.00
2018-08-19T02:13:02.636Z,0.00
2018-08-19T02:14:02.624Z,0.00
2018-08-19T02:15:02.619Z,0.00
2018-08-19T02:16:02.663Z,0.00
2018-08-19T02:17:02.602Z,0.00
2018-08-19T02:18:02.591Z,0.00
2018-08-19T02:19:02.588Z,0.00
2018-08-19T02:20:02.562Z,0.00
2018-08-19T02:21:02.561Z,0.00
2018-08-19T02:22:02.581Z,0.00
2018-08-19T02:23:02.540Z,0.00
2018-08-19T02:24:02.524Z,0.00
2018-08-19T02:25:02.518Z,0.00
2018-08-19T02:26:02.509Z,0.00
2018-08-19T02:27:02.546Z,0.00
2018-08-19T02:28:02.488Z,0.00
2018-08-19T02:29:02.475Z,0.00
2018-08-19T02:30:02.462Z,0.00
2018-08-19T02:31:02.464Z,0.00
2018-08-19T02:32:02.446Z,0.00
2018-08-19T02:33:02.434Z,0.00
2018-08-19T02:34:02.418Z,0.00
2018-08-19T02:35:02.405Z,0.00
2018-08-19T02:36:02.395Z,0.00
2018-08-19T02:37:02.396Z,0.00
2018-08-19T02:38:02.386Z,0.00
2018-08-19T02:39:02.368Z,0.00
2018-08-19T02:40:02.367Z,0.00
2018-08-19T02:41:02.354Z,0.00
2018-08-19T02:42:02.332Z,0.00
2018-08-19T02:43:02.345Z,0.00
2018-08-19T02:44:02.398Z,0.00
2018-08-19T02:45:02.305Z,0.00
2018-08-19T02:46:02.291Z,0.00
2018-08-19T02:47:02.303Z,0.00
2018-08-19T02:48:02.281Z,0.00
2018-08-19T02:49:02.268Z,0.00
2018-08-19T02:50:02.269Z,0.00
2018-08-19T02:51:02.248Z,0.00
2018-08-19T02:52:02.242Z,0.00
2018-08-19T02:53:02.230Z,0.00
2018-08-19T02:54:02.264Z,0.00
2018-08-19T02:55:02.209Z,0.00
2018-08-19T02:56:02.197Z,0.00
2018-08-19T02:57:02.185Z,0.00
2018-08-19T02:58:02.181Z,0.00
2018-08-19T02:59:02.174Z,0.00
2018-08-19T03:00:02.163Z,0.00
2018-08-19T03:01:02.181Z,0.00
2018-08-19T03:02:02.136Z,0.00
2018-08-19T03:03:02.128Z,0.00
2018-08-19T03:04:02.117Z,0.00
2018-08-19T03:05:02.142Z,0.00
2018-08-19T03:06:02.128Z,0.00
2018-08-19T03:07:02.086Z,0.00
2018-08-19T03:08:02.079Z,0.00
2018-08-19T03:09:02.061Z,0.00
2018-08-19T03:10:02.055Z,0.00
2018-08-19T03:11:02.101Z,0.00
2018-08-19T03:12:02.034Z,0.00
2018-08-19T03:13:02.030Z,0.00
2018-08-19T03:14:02.014Z,0.00
2018-08-19T03:15:02.005Z,0.00
2018-08-19T03:16:01.992Z,0.00
2018-08-19T03:17:02.012Z,0.00
2018-08-19T03:18:01.977Z,0.00
2018-08-19T03:19:01.954Z,0.00
2018-08-19T03:20:01.954Z,0.00
2018-08-19T03:21:01.937Z,0.00
2018-08-19T03:22:01.994Z,0.00
2018-08-19T03:23:01.927Z,0.00
2018-08-19T03:24:01.900Z,0.00
2018-08-19T03:25:01.909Z,0.00
2018-08-19T03:26:01.877Z,0.00
2018-08-19T03:27:01.874Z,0.00
2018-08-19T03:28:01.879Z,0.00
2018-08-19T03:29:01.863Z,0.00
2018-08-19T03:30:01.852Z,0.00
2018-08-19T03:31:01.847Z,0.00
2018-08-19T03:32:01.826Z,0.00
2018-08-19T03:33:01.857Z,0.00
2018-08-19T03:34:01.810Z,0.00
2018-08-19T03:35:01.794Z,0.00
2018-08-19T03:36:01.785Z,0.00
2018-08-19T03:37:01.802Z,0.00
2018-08-19T03:38:01.861Z,0.00
2018-08-19T03:39:01.777Z,0.00
2018-08-19T03:40:01.734Z,0.00
2018-08-19T03:41:01.741Z,0.00
2018-08-19T03:42:01.718Z,0.00
2018-08-19T03:43:01.728Z,0.00
2018-08-19T03:44:01.723Z,0.00
2018-08-19T03:45:01.688Z,0.00
2018-08-19T03:46:01.681Z,0.00
2018-08-19T03:47:01.692Z,0.00
2018-08-19T03:48:01.652Z,0.00
2018-08-19T03:49:01.685Z,0.00
2018-08-19T03:50:01.711Z,0.00
2018-08-19T03:51:01.620Z,0.00
2018-08-19T03:52:01.610Z,0.00
2018-08-19T03:53:01.605Z,0.00
2018-08-19T03:54:01.620Z,0.00
2018-08-19T03:55:01.583Z,0.00
2018-08-19T03:56:01.599Z,0.00
2018-08-19T03:57:01.560Z,0.00
2018-08-19T03:58:01.557Z,0.00
2018-08-19T03:59:01.553Z,0.00
2018-08-19T04:00:01.536Z,0.00
2018-08-19T04:01:01.551Z,0.00
2018-08-19T04:02:01.508Z,0.00
2018-08-19T04:03:01.504Z,0.00
2018-08-19T04:04:01.489Z,0.00
2018-08-19T04:05:01.467Z,0.00
2018-08-19T04:06:01.504Z,0.00
2018-08-19T04:07:01.452Z,0.00
2018-08-19T04:08:01.451Z,0.00
2018-08-19T04:09:01.438Z,0.00
2018-08-19T04:10:01.433Z,0.00
2018-08-19T04:11:01.483Z,0.00
2018-08-19T04:12:01.402Z,0.00
2018-08-19T04:13:01.394Z,0.00
2018-08-19T04:14:01.381Z,0.00
2018-08-19T04:15:01.380Z,0.00
2018-08-19T04:16:01.360Z,0.00
2018-08-19T04:17:01.375Z,0.00
2018-08-19T04:18:01.342Z,0.00
2018-08-19T04:19:01.488Z,0.00
2018-08-19T04:20:01.323Z,0.00
2018-08-19T04:21:01.302Z,0.00
2018-08-19T04:22:01.305Z,0.00
2018-08-19T04:23:01.286Z,0.00
2018-08-19T04:24:01.275Z,0.00
2018-08-19T04:25:01.274Z,0.00
2018-08-19T04:26:01.322Z,0.00
2018-08-19T04:27:01.240Z,0.00
2018-08-19T04:28:01.232Z,0.00
2018-08-19T04:29:01.228Z,0.00
2018-08-19T04:30:01.214Z,0.00
2018-08-19T04:31:01.203Z,0.00
2018-08-19T04:32:01.202Z,0.00
2018-08-19T04:33:01.191Z,0.00
2018-08-19T04:34:01.176Z,0.00
2018-08-19T04:35:01.165Z,0.00
2018-08-19T04:36:01.142Z,0.00
2018-08-19T04:37:01.172Z,5.63
2018-08-19T04:38:01.141Z,5.63
2018-08-19T04:39:01.121Z,5.63
2018-08-19T04:40:01.108Z,5.63
2018-08-19T04:41:01.098Z,5.63
2018-08-19T04:42:01.118Z,5.63
2018-08-19T04:43:01.083Z,5.63
2018-08-19T04:44:01.074Z,5.63
2018-08-19T04:45:01.056Z,5.63
2018-08-19T04:46:01.045Z,5.63
2018-08-19T04:47:01.097Z,5.63
2018-08-19T04:48:01.036Z,5.63
2018-08-19T04:49:01.092Z,5.63
2018-08-19T04:50:01.002Z,5.63
2018-08-19T04:51:00.999Z,5.63
2018-08-19T04:52:00.970Z,5.63
2018-08-19T04:53:01.034Z,5.63
2018-08-19T04:54:00.956Z,5.63
2018-08-19T04:55:00.956Z,11.25
2018-08-19T04:56:00.942Z,11.25
2018-08-19T04:57:00.929Z,11.25
2018-08-19T04:58:00.923Z,11.25
2018-08-19T04:59:00.919Z,11.25
2018-08-19T05:00:00.968Z,11.25
2018-08-19T05:01:00.889Z,11.25
2018-08-19T05:02:00.888Z,11.25
2018-08-19T05:03:00.866Z,11.25
2018-08-19T05:04:00.857Z,11.25
2018-08-19T05:05:00.846Z,11.25
2018-08-19T05:06:00.887Z,11.25
2018-08-19T05:07:00.816Z,11.25
2018-08-19T05:08:00.922Z,16.88
2018-08-19T05:09:00.802Z,16.88
2018-08-19T05:10:00.786Z,16.88
2018-08-19T05:11:00.781Z,16.88
2018-08-19T05:12:00.786Z,16.88
2018-08-19T05:13:00.762Z,16.88
2018-08-19T05:14:00.752Z,16.88
2018-08-19T05:15:00.734Z,16.88
2018-08-19T05:16:00.733Z,16.88
2018-08-19T05:17:00.749Z,16.88
2018-08-19T05:18:00.709Z,22.50
2018-08-19T05:19:00.699Z,22.50
2018-08-19T05:20:00.685Z,22.50
2018-08-19T05:21:00.683Z,22.50
2018-08-19T05:22:00.682Z,22.50
2018-08-19T05:23:00.660Z,22.50
2018-08-19T05:24:00.644Z,22.50
2018-08-19T05:25:00.641Z,22.50
2018-08-19T05:26:00.628Z,22.50
2018-08-19T05:27:00.637Z,22.50
2018-08-19T05:28:00.602Z,22.50
2018-08-19T05:29:00.597Z,22.50
2018-08-19T05:30:00.588Z,28.13
2018-08-19T05:31:00.572Z,28.13
2018-08-19T05:32:00.614Z,28.13
2018-08-19T05:33:00.552Z,28.13
2018-08-19T05:34:00.543Z,28.13
2018-08-19T05:35:00.537Z,28.13
2018-08-19T05:36:00.522Z,28.13
2018-08-19T05:37:00.546Z,28.13
2018-08-19T05:38:00.525Z,28.13
2018-08-19T05:39:00.490Z,28.13
2018-08-19T05:40:00.482Z,33.75
2018-08-19T05:41:00.462Z,33.75
2018-08-19T05:42:00.484Z,33.75
2018-08-19T05:43:00.449Z,33.75
2018-08-19T05:44:00.436Z,33.75
2018-08-19T05:45:00.428Z,33.75
2018-08-19T05:46:00.420Z,33.75
2018-08-19T05:47:00.524Z,33.75
2018-08-19T05:48:00.425Z,33.75
2018-08-19T05:49:00.390Z,33.75
2018-08-19T05:50:00.376Z,33.75
2018-08-19T05:51:00.364Z,33.75
2018-08-19T05:52:00.349Z,33.75
2018-08-19T05:53:00.381Z,33.75
2018-08-19T05:54:00.377Z,33.75
2018-08-19T05:55:00.329Z,33.75
2018-08-19T05:56:00.313Z,33.75
2018-08-19T05:57:00.304Z,33.75
2018-08-19T05:58:00.365Z,33.75
2018-08-19T05:59:00.283Z,33.75
2018-08-19T06:00:00.280Z,33.75
2018-08-19T06:01:00.335Z,33.75
2018-08-19T06:02:00.258Z,33.75
2018-08-19T06:03:00.253Z,33.75
2018-08-19T06:04:00.246Z,33.75
2018-08-19T06:05:00.226Z,39.38
2018-08-19T06:06:00.218Z,39.38
2018-08-19T06:07:00.215Z,39.38
2018-08-19T06:08:00.224Z,39.38
2018-08-19T06:09:00.187Z,39.38
2018-08-19T06:10:00.184Z,39.38
2018-08-19T06:11:00.171Z,39.38
2018-08-19T06:12:00.147Z,39.38
2018-08-19T06:13:00.171Z,39.38
2018-08-19T06:14:00.136Z,45.00
2018-08-19T06:15:00.124Z,39.38
2018-08-19T06:16:00.269Z,39.38
2018-08-19T06:17:00.102Z,39.38
2018-08-19T06:18:00.100Z,39.38
2018-08-19T06:19:00.088Z,45.00
2018-08-19T06:20:00.081Z,45.00
2018-08-19T06:21:00.096Z,45.00
2018-08-19T06:22:00.120Z,45.00
2018-08-19T06:23:00.043Z,45.00
2018-08-19T06:24:00.025Z,45.00
2018-08-19T06:25:00.063Z,45.00
2018-08-19T06:26:00.027Z,45.00
2018-08-19T06:27:00.042Z,45.00
2018-08-19T06:27:59.988Z,45.00
2018-08-19T06:29:00.185Z,50.63
2018-08-19T06:29:59.981Z,50.63
2018-08-19T06:30:59.987Z,50.63
2018-08-19T06:31:59.982Z,50.63
2018-08-19T06:32:59.943Z,50.63
2018-08-19T06:33:59.939Z,50.63
2018-08-19T06:35:00.044Z,50.63
2018-08-19T06:35:59.916Z,50.63
2018-08-19T06:36:59.928Z,50.63
2018-08-19T06:37:59.893Z,50.63
2018-08-19T06:38:59.916Z,50.63
2018-08-19T06:39:59.901Z,50.63
2018-08-19T06:40:59.903Z,56.25
2018-08-19T06:41:59.859Z,56.25
2018-08-19T06:42:59.848Z,56.25
2018-08-19T06:43:59.839Z,56.25
2018-08-19T06:44:59.884Z,56.25
2018-08-19T06:45:59.815Z,56.25
2018-08-19T06:46:59.806Z,56.25
2018-08-19T06:47:59.796Z,56.25
2018-08-19T06:48:59.788Z,56.25
2018-08-19T06:49:59.769Z,56.25
2018-08-19T06:50:59.773Z,56.25
2018-08-19T06:51:59.761Z,56.25
2018-08-19T06:52:59.748Z,56.25
2018-08-19T06:53:59.736Z,61.88
2018-08-19T06:54:59.727Z,61.88
2018-08-19T06:55:59.724Z,61.88
2018-08-19T06:56:59.700Z,56.25
2018-08-19T06:57:59.692Z,56.25
2018-08-19T06:58:59.831Z,61.88
2018-08-19T06:59:59.709Z,61.88
2018-08-19T07:00:59.708Z,61.88
2018-08-19T07:01:59.671Z,67.50
2018-08-19T07:02:59.641Z,67.50
2018-08-19T07:03:59.751Z,67.50
2018-08-19T07:04:59.638Z,73.13
2018-08-19T07:05:59.774Z,67.50
2018-08-19T07:06:59.611Z,67.50
2018-08-19T07:07:59.658Z,61.88
2018-08-19T07:08:59.600Z,61.88
2018-08-19T07:09:59.585Z,67.50
2018-08-19T07:10:59.577Z,61.88
2018-08-19T07:11:59.561Z,61.88
2018-08-19T07:12:59.561Z,67.50
2018-08-19T07:13:59.563Z,61.88
2018-08-19T07:14:59.544Z,61.88
2018-08-19T07:15:59.529Z,67.50
2018-08-19T07:16:59.522Z,67.50
2018-08-19T07:17:59.539Z,67.50
2018-08-19T07:18:59.495Z,61.88
2018-08-19T07:19:59.508Z,67.50
2018-08-19T07:20:59.483Z,67.50
2018-08-19T07:21:59.473Z,67.50
2018-08-19T07:22:59.469Z,67.50
2018-08-19T07:23:59.461Z,67.50
2018-08-19T07:24:59.459Z,67.50
2018-08-19T07:25:59.447Z,67.50
2018-08-19T07:26:59.424Z,67.50
2018-08-19T07:27:59.425Z,67.50
2018-08-19T07:28:59.419Z,73.13
2018-08-19T07:29:59.402Z,73.13
2018-08-19T07:30:59.432Z,73.13
2018-08-19T07:31:59.384Z,73.13
2018-08-19T07:32:59.371Z,73.13
2018-08-19T07:33:59.370Z,73.13
2018-08-19T07:34:59.372Z,73.13
2018-08-19T07:35:59.377Z,78.75
2018-08-19T07:36:59.520Z,78.75
2018-08-19T07:37:59.341Z,78.75
2018-08-19T07:38:59.317Z,78.75
2018-08-19T07:39:59.317Z,78.75
2018-08-19T07:40:59.329Z,78.75
2018-08-19T07:41:59.289Z,78.75
2018-08-19T07:42:59.318Z,78.75
2018-08-19T07:43:59.343Z,78.75
2018-08-19T07:44:59.270Z,84.38
2018-08-19T07:45:59.262Z,84.38
2018-08-19T07:46:59.249Z,78.75
2018-08-19T07:47:59.273Z,84.38
2018-08-19T07:48:59.338Z,84.38
2018-08-19T07:49:59.229Z,84.38
2018-08-19T07:50:59.220Z,84.38
2018-08-19T07:51:59.240Z,84.38
2018-08-19T07:52:59.205Z,84.38
2018-08-19T07:53:59.223Z,84.38
2018-08-19T07:54:59.187Z,84.38
2018-08-19T07:55:59.165Z,84.38
2018-08-19T07:56:59.191Z,84.38
2018-08-19T07:57:59.156Z,84.38
2018-08-19T07:58:59.199Z,84.38
2018-08-19T07:59:59.141Z,84.38
2018-08-19T08:00:59.133Z,90.00
2018-08-19T08:01:59.371Z,90.00
2018-08-19T08:02:59.114Z,90.00
2018-08-19T08:03:59.107Z,95.63
2018-08-19T08:04:59.119Z,90.00
2018-08-19T08:05:59.097Z,90.00
2018-08-19T08:06:59.082Z,101.25
2018-08-19T08:07:59.106Z,101.25
2018-08-19T08:08:59.281Z,101.25
2018-08-19T08:09:59.086Z,95.63
2018-08-19T08:10:59.082Z,95.63
2018-08-19T08:11:59.040Z,95.63
2018-08-19T08:12:59.039Z,95.63
2018-08-19T08:13:59.088Z,95.63
2018-08-19T08:14:59.007Z,95.63
2018-08-19T08:15:59.002Z,95.63
2018-08-19T08:16:58.989Z,95.63
2018-08-19T08:17:58.996Z,101.25
2018-08-19T08:18:58.990Z,101.25
2018-08-19T08:19:59.002Z,101.25
2018-08-19T08:20:58.983Z,101.25
2018-08-19T08:21:58.963Z,112.50
2018-08-19T08:22:58.955Z,106.88
2018-08-19T08:23:58.938Z,101.25
2018-08-19T08:24:58.984Z,101.25
2018-08-19T08:25:58.914Z,106.88
2018-08-19T08:26:58.917Z,106.88
2018-08-19T08:27:58.922Z,106.88
2018-08-19T08:28:58.957Z,112.50
2018-08-19T08:29:58.899Z,112.50
2018-08-19T08:30:58.883Z,112.50
2018-08-19T08:31:58.886Z,118.13
2018-08-19T08:32:58.868Z,118.13
2018-08-19T08:33:58.907Z,118.13
2018-08-19T08:34:58.854Z,112.50
2018-08-19T08:35:58.832Z,118.13
2018-08-19T08:36:58.835Z,135.00
2018-08-19T08:37:58.840Z,123.75
2018-08-19T08:38:58.814Z,118.13
2018-08-19T08:39:58.846Z,123.75
2018-08-19T08:40:58.801Z,123.75
2018-08-19T08:41:58.798Z,118.13
2018-08-19T08:42:58.782Z,123.75
2018-08-19T08:43:58.792Z,129.38
2018-08-19T08:44:58.820Z,129.38
2018-08-19T08:45:58.757Z,129.38
2018-08-19T08:46:58.761Z,146.25
2018-08-19T08:47:58.848Z,146.25
2018-08-19T08:48:58.748Z,146.25
2018-08-19T08:49:58.734Z,151.88
2018-08-19T08:50:58.762Z,168.75
2018-08-19T08:51:58.723Z,180.00
2018-08-19T08:52:58.713Z,146.25
2018-08-19T08:53:58.706Z,157.50
2018-08-19T08:54:58.688Z,151.88
2018-08-19T08:55:58.709Z,258.75
2018-08-19T08:56:58.728Z,309.38
2018-08-19T08:57:58.672Z,298.13
2018-08-19T08:58:58.824Z,410.63
2018-08-19T08:59:58.644Z,382.50
2018-08-19T09:00:58.643Z,236.25
2018-08-19T09:01:58.700Z,168.75
2018-08-19T09:02:58.627Z,202.50
2018-08-19T09:03:58.623Z,191.25
2018-08-19T09:04:58.622Z,196.88
2018-08-19T09:05:58.613Z,270.00
2018-08-19T09:06:58.603Z,185.63
2018-08-19T09:07:58.601Z,157.50
2018-08-19T09:08:58.592Z,168.75
2018-08-19T09:09:58.573Z,191.25
2018-08-19T09:10:58.568Z,174.38
2018-08-19T09:11:58.567Z,208.13
2018-08-19T09:12:58.567Z,180.00
2018-08-19T09:13:58.603Z,191.25
2018-08-19T09:14:58.614Z,191.25
2018-08-19T09:15:58.542Z,225.00
2018-08-19T09:16:58.532Z,202.50
2018-08-19T09:17:58.530Z,196.88
2018-08-19T09:18:58.518Z,241.88
2018-08-19T09:19:58.515Z,219.38
2018-08-19T09:20:58.512Z,236.25
2018-08-19T09:21:58.500Z,191.25
2018-08-19T09:22:58.534Z,275.63
2018-08-19T09:23:58.476Z,225.00
2018-08-19T09:24:58.482Z,202.50
2018-08-19T09:25:58.508Z,303.75
2018-08-19T09:26:58.462Z,230.63
2018-08-19T09:27:58.457Z,185.63
2018-08-19T09:28:58.455Z,196.88
2018-08-19T09:29:58.443Z,208.13
2018-08-19T09:30:58.463Z,219.38
2018-08-19T09:31:58.430Z,230.63
2018-08-19T09:32:58.508Z,303.75
2018-08-19T09:33:58.423Z,736.88
2018-08-19T09:34:58.423Z,191.25
2018-08-19T09:35:58.437Z,748.13
2018-08-19T09:36:58.400Z,832.50
2018-08-19T09:37:58.394Z,765.00
2018-08-19T09:38:58.383Z,545.63
2018-08-19T09:39:58.382Z,1063.13
2018-08-19T09:40:58.379Z,2227.50
2018-08-19T09:41:58.354Z,2137.50
2018-08-19T09:42:58.370Z,1850.63
2018-08-19T09:43:58.354Z,1462.50
2018-08-19T09:44:58.349Z,1890.00
2018-08-19T09:45:58.332Z,2238.75
2018-08-19T09:46:58.325Z,2576.25
2018-08-19T09:47:58.491Z,2345.63
2018-08-19T09:48:58.325Z,2070.00
2018-08-19T09:49:58.317Z,2216.25
2018-08-19T09:50:58.303Z,1867.50
2018-08-19T09:51:58.310Z,736.88
2018-08-19T09:52:58.339Z,450.00
2018-08-19T09:53:58.334Z,376.88
2018-08-19T09:54:58.308Z,247.50
2018-08-19T09:55:58.350Z,213.75
2018-08-19T09:56:58.300Z,320.63
2018-08-19T09:57:58.283Z,247.50
2018-08-19T09:58:58.280Z,354.38
2018-08-19T09:59:58.270Z,315.00
2018-08-19T10:00:58.264Z,298.13
2018-08-19T10:01:58.289Z,810.00
2018-08-19T10:02:58.265Z,663.75
2018-08-19T10:03:58.261Z,624.38
2018-08-19T10:04:58.255Z,1895.63
2018-08-19T10:05:58.255Z,1282.50
2018-08-19T10:06:58.271Z,630.00
2018-08-19T10:07:58.247Z,450.00
2018-08-19T10:08:58.247Z,337.50
2018-08-19T10:09:58.243Z,455.63
2018-08-19T10:10:58.232Z,1006.88
2018-08-19T10:11:58.291Z,1231.88
2018-08-19T10:12:58.219Z,1333.13
2018-08-19T10:13:58.220Z,1861.88
2018-08-19T10:14:58.206Z,2733.75
2018-08-19T10:15:58.210Z,1136.25
2018-08-19T10:16:58.247Z,624.38
2018-08-19T10:17:58.244Z,292.50
2018-08-19T10:18:58.247Z,2593.13
2018-08-19T10:19:58.191Z,2801.25
2018-08-19T10:20:58.177Z,2728.13
2018-08-19T10:21:58.172Z,2205.00
2018-08-19T10:22:58.181Z,1659.38
2018-08-19T10:23:58.176Z,697.50
2018-08-19T10:24:58.201Z,461.25
2018-08-19T10:25:58.170Z,613.13
2018-08-19T10:26:58.169Z,1181.25
2018-08-19T10:27:58.158Z,1125.00
2018-08-19T10:28:58.161Z,855.00
2018-08-19T10:29:58.203Z,916.88
2018-08-19T10:30:58.157Z,472.50
2018-08-19T10:31:58.158Z,298.13
2018-08-19T10:32:58.158Z,331.88
2018-08-19T10:33:58.199Z,275.63
2018-08-19T10:35:01.786Z,303.75
2018-08-19T10:35:58.152Z,315.00
2018-08-19T10:36:58.132Z,703.13
2018-08-19T10:37:58.181Z,1057.50
2018-08-19T10:38:58.139Z,534.38
2018-08-19T10:39:58.140Z,196.88
2018-08-19T10:40:58.136Z,191.25
2018-08-19T10:41:58.138Z,174.38
2018-08-19T10:42:58.124Z,286.88
2018-08-19T10:43:58.121Z,191.25
2018-08-19T10:44:58.125Z,309.38
2018-08-19T10:45:58.118Z,354.38
2018-08-19T10:46:58.114Z,241.88
2018-08-19T10:47:58.121Z,202.50
2018-08-19T10:48:58.103Z,180.00
2018-08-19T10:49:58.104Z,185.63
2018-08-19T10:50:58.094Z,196.88
2018-08-19T10:51:58.092Z,191.25
2018-08-19T10:52:58.138Z,208.13
2018-08-19T10:53:58.086Z,264.38
2018-08-19T10:54:58.080Z,275.63
2018-08-19T10:55:58.078Z,219.38
2018-08-19T10:56:58.071Z,174.38
2018-08-19T10:57:58.064Z,168.75
2018-08-19T10:58:58.069Z,163.13
2018-08-19T10:59:58.374Z,174.38
2018-08-19T11:00:58.061Z,168.75
2018-08-19T11:01:58.044Z,163.13
2018-08-19T11:02:58.037Z,168.75
2018-08-19T11:03:58.043Z,163.13
2018-08-19T11:04:58.024Z,163.13
2018-08-19T11:05:58.028Z,163.13
2018-08-19T11:06:58.024Z,168.75
2018-08-19T11:07:58.005Z,174.38
2018-08-19T11:08:58.004Z,174.38
2018-08-19T11:09:58.008Z,163.13
2018-08-19T11:10:57.999Z,208.13
2018-08-19T11:11:58.027Z,191.25
2018-08-19T11:12:57.987Z,196.88
2018-08-19T11:13:58.046Z,213.75
2018-08-19T11:14:57.970Z,174.38
2018-08-19T11:15:57.985Z,433.13
2018-08-19T11:16:57.960Z,421.88
2018-08-19T11:17:57.969Z,331.88
2018-08-19T11:18:57.960Z,225.00
2018-08-19T11:19:57.974Z,219.38
2018-08-19T11:20:57.986Z,354.38
2018-08-19T11:21:57.941Z,185.63
2018-08-19T11:22:57.936Z,1130.63
2018-08-19T11:23:57.960Z,1063.13
2018-08-19T11:24:57.964Z,185.63
2018-08-19T11:25:57.921Z,180.00
2018-08-19T11:26:57.927Z,275.63
2018-08-19T11:27:57.915Z,180.00
2018-08-19T11:28:57.907Z,213.75
2018-08-19T11:29:57.932Z,196.88
2018-08-19T11:30:57.896Z,185.63
2018-08-19T11:31:57.904Z,180.00
2018-08-19T11:32:57.889Z,185.63
2018-08-19T11:33:57.895Z,180.00
2018-08-19T11:34:57.878Z,180.00
2018-08-19T11:35:57.865Z,174.38
2018-08-19T11:36:57.871Z,348.75
2018-08-19T11:37:57.860Z,168.75
2018-08-19T11:38:57.862Z,225.00
2018-08-19T11:39:57.855Z,590.63
2018-08-19T11:40:57.883Z,258.75
2018-08-19T11:41:57.862Z,168.75
2018-08-19T11:42:57.894Z,168.75
2018-08-19T11:43:59.825Z,163.13
2018-08-19T11:44:57.825Z,174.38
2018-08-19T11:45:57.849Z,163.13
2018-08-19T11:46:57.804Z,163.13
2018-08-19T11:47:57.807Z,168.75
2018-08-19T11:48:57.808Z,163.13
2018-08-19T11:49:57.833Z,168.75
2018-08-19T11:50:57.789Z,180.00
2018-08-19T11:51:57.792Z,168.75
2018-08-19T11:52:57.788Z,163.13
2018-08-19T11:53:57.772Z,168.75
2018-08-19T11:54:57.838Z,191.25
2018-08-19T11:55:57.767Z,185.63
2018-08-19T11:56:57.765Z,168.75
2018-08-19T11:57:57.763Z,185.63
2018-08-19T11:58:57.757Z,180.00
2018-08-19T11:59:57.742Z,348.75
2018-08-19T12:00:57.795Z,320.63
2018-08-19T12:01:57.746Z,641.25
2018-08-19T12:02:57.731Z,472.50
2018-08-19T12:03:57.724Z,241.88
2018-08-19T12:04:57.727Z,630.00
2018-08-19T12:05:57.723Z,202.50
2018-08-19T12:06:57.741Z,298.13
2018-08-19T12:07:57.716Z,270.00
2018-08-19T12:08:57.694Z,185.63
2018-08-19T12:09:58.224Z,320.63
2018-08-19T12:10:57.694Z,236.25
2018-08-19T12:11:58.129Z,230.63
2018-08-19T12:12:57.680Z,399.38
2018-08-19T12:13:57.675Z,180.00
2018-08-19T12:14:57.675Z,180.00
2018-08-19T12:15:57.673Z,247.50
2018-08-19T12:16:58.349Z,337.50
2018-08-19T12:17:57.660Z,461.25
2018-08-19T12:18:57.644Z,208.13
2018-08-19T12:19:57.650Z,180.00
2018-08-19T12:20:58.250Z,180.00
2018-08-19T12:21:57.928Z,320.63
2018-08-19T12:22:57.638Z,225.00
2018-08-19T12:23:57.637Z,1237.50
2018-08-19T12:24:57.625Z,258.75
2018-08-19T12:25:57.626Z,905.63
2018-08-19T12:26:57.621Z,703.13
2018-08-19T12:27:57.647Z,331.88
2018-08-19T12:28:57.617Z,1608.75
2018-08-19T12:29:57.603Z,416.25
2018-08-19T12:30:57.601Z,163.13
2018-08-19T12:31:57.742Z,331.88
2018-08-19T12:32:57.605Z,174.38
2018-08-19T12:33:57.586Z,230.63
2018-08-19T12:34:57.590Z,213.75
2018-08-19T12:35:57.581Z,691.88
2018-08-19T12:36:57.597Z,337.50
2018-08-19T12:37:57.582Z,365.63
2018-08-19T12:38:57.567Z,264.38
2018-08-19T12:39:57.577Z,309.38
2018-08-19T12:40:57.564Z,326.25
2018-08-19T12:41:57.558Z,624.38
2018-08-19T12:42:57.573Z,292.50
2018-08-19T12:43:57.552Z,202.50
2018-08-19T12:44:57.588Z,562.50
2018-08-19T12:45:57.538Z,185.63
2018-08-19T12:46:57.541Z,275.63
2018-08-19T12:47:57.567Z,185.63
2018-08-19T12:48:57.531Z,180.00
2018-08-19T12:49:57.515Z,208.13
2018-08-19T12:50:57.526Z,168.75
2018-08-19T12:51:57.523Z,281.25